Hauptseite
METAR-TAF:

METAR-TAF

Flughäfen :

Flugplatz Toussus-le-Noble

Toussus-le-Noble, Frankreich

Breite: 48-46N, Länge: 002-06E, Höhe: 164 m

Beobachtung

Neuester Wetterbericht von vor 23 Minuten, um 18:30 UTC
Wind 3 kt aus Ost/Südost
Temperatur 31°C
Luftfeuchtigkeit 27%
Luftdruck 1017 hPa
Sichtweite 10 km oder mehr
keine Wolken unter 1500 m und keine Kumulonimbus oder Gewitterwolken

METAR: LFPN 061830Z AUTO 11003KT CAVOK 31/10 Q1017 NOSIG

Zeit: 20:53 (18:53 UTC)

Prognose

Neuester Wetterbericht von vor 1 Stunde und 53 Minuten, um 17:00 UTC
Gültige Prognose vom 06 um 18 UTC bis 07 um 03 UTC
Wind 3 kt aus unterschiedlichen Richtungen
Sichtweite 10 km oder mehr
keine Wolken unter 1500 m und keine Kumulonimbus oder Gewitterwolken

TAF: LFPN 061700Z 0618/0703 VRB03KT CAVOK

Wetterbeobachtungen und Prognosen von mehr als 4000 Flughäfen (METAR und TAF Bericht).

Die verfügbaren Stationen werden durch gelbe und rote Markierungen auf der Karte dargestellt.

Führen Sie die Maus auf sie, um den Namen der Station zu sehen.

Darauf klicken, um die Beobachtung von Wetterbeobachtungen und Prognosen zu sehen.

Um die Karte zu ändern : klicken Sie auf den grünen Tasten mit einem schwarzen Kreuz Zum Vergrößern, auf den grünen Button mit einem Gedankenstrich zu verkleinern, oder auf die grünen Pfeile für benachbarte Karten.


METAR-TAF: